sensor_id;sensor_type;location;lat;lon;timestamp;pressure;altitude;pressure_sealevel;temperature;humidity
69780;BME280;57052;55.602;38.096;2023-09-19T00:00:42;100900.25;;;12.35;71.31
69780;BME280;57052;55.602;38.096;2023-09-19T00:03:10;100892.91;;;12.31;71.46
69780;BME280;57052;55.602;38.096;2023-09-19T00:05:38;100891.53;;;12.28;71.44
69780;BME280;57052;55.602;38.096;2023-09-19T00:08:04;100901.84;;;12.26;71.30
69780;BME280;57052;55.602;38.096;2023-09-19T00:10:32;100889.59;;;12.18;71.10
69780;BME280;57052;55.602;38.096;2023-09-19T00:13:01;100906.72;;;12.19;70.93
69780;BME280;57052;55.602;38.096;2023-09-19T00:15:37;100906.69;;;12.14;70.91
69780;BME280;57052;55.602;38.096;2023-09-19T00:18:04;100910.75;;;12.11;71.20
69780;BME280;57052;55.602;38.096;2023-09-19T00:20:32;100902.28;;;12.08;71.22
69780;BME280;57052;55.602;38.096;2023-09-19T00:22:57;100910.16;;;12.04;71.17
69780;BME280;57052;55.602;38.096;2023-09-19T00:25:30;100900.66;;;12.02;71.39
69780;BME280;57052;55.602;38.096;2023-09-19T00:27:57;100890.84;;;11.96;71.45
69780;BME280;57052;55.602;38.096;2023-09-19T00:30:23;100901.69;;;11.96;71.37
69780;BME280;57052;55.602;38.096;2023-09-19T00:32:51;100899.25;;;11.94;70.89
69780;BME280;57052;55.602;38.096;2023-09-19T00:35:21;100903.03;;;11.93;70.80
69780;BME280;57052;55.602;38.096;2023-09-19T00:37:50;100905.19;;;11.91;71.06
69780;BME280;57052;55.602;38.096;2023-09-19T00:40:16;100915.50;;;11.89;71.23
69780;BME280;57052;55.602;38.096;2023-09-19T00:42:46;100905.44;;;11.85;71.20
69780;BME280;57052;55.602;38.096;2023-09-19T00:45:13;100910.84;;;11.85;70.93
69780;BME280;57052;55.602;38.096;2023-09-19T00:47:41;100905.69;;;11.83;70.90
69780;BME280;57052;55.602;38.096;2023-09-19T00:50:08;100904.06;;;11.82;70.80
69780;BME280;57052;55.602;38.096;2023-09-19T00:52:35;100914.09;;;11.82;71.16
69780;BME280;57052;55.602;38.096;2023-09-19T00:55:06;100915.16;;;11.81;70.88
69780;BME280;57052;55.602;38.096;2023-09-19T00:57:33;100910.56;;;11.81;70.99
69780;BME280;57052;55.602;38.096;2023-09-19T01:00:00;100921.41;;;11.81;70.77
69780;BME280;57052;55.602;38.096;2023-09-19T01:02:31;100896.84;;;11.66;70.65
69780;BME280;57052;55.602;38.096;2023-09-19T01:04:58;100915.16;;;11.81;70.96
69780;BME280;57052;55.602;38.096;2023-09-19T01:07:24;100904.31;;;11.81;71.12
69780;BME280;57052;55.602;38.096;2023-09-19T01:09:50;100902.69;;;11.80;71.21
69780;BME280;57052;55.602;38.096;2023-09-19T01:12:23;100903.72;;;11.74;71.30
69780;BME280;57052;55.602;38.096;2023-09-19T01:15:05;100904.78;;;11.73;71.84
69780;BME280;57052;55.602;38.096;2023-09-19T01:18:07;100902.66;;;11.75;71.57
69780;BME280;57052;55.602;38.096;2023-09-19T01:26:53;100904.03;;;11.77;71.64
69780;BME280;57052;55.602;38.096;2023-09-19T01:29:42;100894.28;;;11.81;71.68
69780;BME280;57052;55.602;38.096;2023-09-19T01:32:10;100907.56;;;11.83;71.25
69780;BME280;57052;55.602;38.096;2023-09-19T01:37:10;100904.63;;;11.84;71.78
69780;BME280;57052;55.602;38.096;2023-09-19T01:39:36;100898.63;;;11.82;71.67
69780;BME280;57052;55.602;38.096;2023-09-19T01:42:21;100903.78;;;11.84;72.41
69780;BME280;57052;55.602;38.096;2023-09-19T01:45:11;100896.19;;;11.86;72.66
69780;BME280;57052;55.602;38.096;2023-09-19T01:47:46;100889.97;;;11.90;71.82
69780;BME280;57052;55.602;38.096;2023-09-19T01:52:59;100887.56;;;11.94;71.66
69780;BME280;57052;55.602;38.096;2023-09-19T01:55:30;100880.53;;;11.98;71.93
69780;BME280;57052;55.602;38.096;2023-09-19T01:58:08;100876.22;;;11.97;71.63
69780;BME280;57052;55.602;38.096;2023-09-19T02:00:41;100878.63;;;11.98;71.38
69780;BME280;57052;55.602;38.096;2023-09-19T02:03:09;100878.91;;;11.97;71.30
69780;BME280;57052;55.602;38.096;2023-09-19T02:05:35;100880.00;;;12.01;71.60
69780;BME280;57052;55.602;38.096;2023-09-19T02:08:01;100882.72;;;12.01;71.36
69780;BME280;57052;55.602;38.096;2023-09-19T02:10:26;100862.34;;;11.93;71.51
69780;BME280;57052;55.602;38.096;2023-09-19T02:12:52;100870.53;;;12.03;71.37
69780;BME280;57052;55.602;38.096;2023-09-19T02:15:19;100872.72;;;12.06;71.51
69780;BME280;57052;55.602;38.096;2023-09-19T02:17:45;100870.84;;;12.07;71.64
69780;BME280;57052;55.602;38.096;2023-09-19T02:20:12;100868.66;;;12.09;71.45
69780;BME280;57052;55.602;38.096;2023-09-19T02:22:39;100870.28;;;12.10;71.34
69780;BME280;57052;55.602;38.096;2023-09-19T02:25:25;100875.47;;;12.11;71.27
69780;BME280;57052;55.602;38.096;2023-09-19T02:27:52;100875.72;;;12.10;71.45
69780;BME280;57052;55.602;38.096;2023-09-19T02:30:20;100879.00;;;12.12;71.34
69780;BME280;57052;55.602;38.096;2023-09-19T02:32:51;100870.84;;;12.12;71.16
69780;BME280;57052;55.602;38.096;2023-09-19T02:35:17;100876.28;;;12.12;71.63
69780;BME280;57052;55.602;38.096;2023-09-19T02:37:45;100868.13;;;12.07;71.42
69780;BME280;57052;55.602;38.096;2023-09-19T02:40:11;100868.16;;;12.12;71.24
69780;BME280;57052;55.602;38.096;2023-09-19T02:42:55;100868.38;;;12.10;71.80
69780;BME280;57052;55.602;38.096;2023-09-19T02:45:21;100870.84;;;12.12;71.55
69780;BME280;57052;55.602;38.096;2023-09-19T02:47:49;100869.22;;;12.11;71.62
69780;BME280;57052;55.602;38.096;2023-09-19T02:50:15;100852.88;;;12.01;71.66
69780;BME280;57052;55.602;38.096;2023-09-19T02:52:43;100864.06;;;12.09;71.11
69780;BME280;57052;55.602;38.096;2023-09-19T02:55:12;100857.00;;;12.08;71.63
69780;BME280;57052;55.602;38.096;2023-09-19T02:57:40;100859.16;;;12.06;71.62
69780;BME280;57052;55.602;38.096;2023-09-19T03:00:09;100850.16;;;12.01;71.62
69780;BME280;57052;55.602;38.096;2023-09-19T03:02:38;100853.19;;;12.04;71.67
69780;BME280;57052;55.602;38.096;2023-09-19T03:05:07;100858.84;;;12.03;71.19
69780;BME280;57052;55.602;38.096;2023-09-19T03:07:33;100849.88;;;11.92;71.20
69780;BME280;57052;55.602;38.096;2023-09-19T03:09:59;100866.19;;;11.97;71.41
69780;BME280;57052;55.602;38.096;2023-09-19T03:12:26;100862.88;;;11.95;71.25
69780;BME280;57052;55.602;38.096;2023-09-19T03:14:52;100862.34;;;11.93;71.48
69780;BME280;57052;55.602;38.096;2023-09-19T03:17:18;100855.00;;;11.89;71.58
69780;BME280;57052;55.602;38.096;2023-09-19T03:19:45;100868.56;;;11.89;71.66
69780;BME280;57052;55.602;38.096;2023-09-19T03:22:13;100862.31;;;11.88;71.29
69780;BME280;57052;55.602;38.096;2023-09-19T03:24:39;100874.50;;;11.86;71.33
69780;BME280;57052;55.602;38.096;2023-09-19T03:27:04;100869.34;;;11.84;71.23
69780;BME280;57052;55.602;38.096;2023-09-19T03:29:30;100866.84;;;11.78;71.48
69780;BME280;57052;55.602;38.096;2023-09-19T03:31:56;100866.81;;;11.73;71.22
69780;BME280;57052;55.602;38.096;2023-09-19T03:34:21;100882.59;;;11.81;71.51
69780;BME280;57052;55.602;38.096;2023-09-19T03:36:47;100881.78;;;11.80;71.31
69780;BME280;57052;55.602;38.096;2023-09-19T03:39:12;100863.31;;;11.72;71.69
69780;BME280;57052;55.602;38.096;2023-09-19T03:41:40;100872.03;;;11.79;71.65
69780;BME280;57052;55.602;38.096;2023-09-19T03:44:06;100865.78;;;11.79;71.83
69780;BME280;57052;55.602;38.096;2023-09-19T03:46:31;100854.59;;;11.70;71.67
69780;BME280;57052;55.602;38.096;2023-09-19T03:48:57;100860.63;;;11.77;71.54
69780;BME280;57052;55.602;38.096;2023-09-19T03:51:23;100859.28;;;11.80;71.99
69780;BME280;57052;55.602;38.096;2023-09-19T03:53:49;100859.00;;;11.81;72.14
69780;BME280;57052;55.602;38.096;2023-09-19T03:56:15;100851.66;;;11.77;71.73
69780;BME280;57052;55.602;38.096;2023-09-19T03:58:41;100859.88;;;11.87;71.98
69780;BME280;57052;55.602;38.096;2023-09-19T04:01:06;100862.03;;;11.85;71.78
69780;BME280;57052;55.602;38.096;2023-09-19T04:03:33;100866.16;;;11.92;71.94
69780;BME280;57052;55.602;38.096;2023-09-19T04:06:15;100867.53;;;11.95;72.36
69780;BME280;57052;55.602;38.096;2023-09-19T04:08:41;100862.91;;;12.00;71.89
69780;BME280;57052;55.602;38.096;2023-09-19T04:11:07;100865.09;;;12.03;72.28
69780;BME280;57052;55.602;38.096;2023-09-19T04:13:33;100860.78;;;12.07;72.06
69780;BME280;57052;55.602;38.096;2023-09-19T04:15:59;100862.72;;;12.12;72.01
69780;BME280;57052;55.602;38.096;2023-09-19T04:18:25;100849.66;;;12.09;72.02
69780;BME280;57052;55.602;38.096;2023-09-19T04:20:51;100862.47;;;12.18;71.91
69780;BME280;57052;55.602;38.096;2023-09-19T04:23:17;100856.25;;;12.23;71.94
69780;BME280;57052;55.602;38.096;2023-09-19T04:25:45;100851.09;;;12.27;71.99
69780;BME280;57052;55.602;38.096;2023-09-19T04:28:11;100850.31;;;12.31;72.40
69780;BME280;57052;55.602;38.096;2023-09-19T04:30:37;100838.09;;;12.34;71.85
69780;BME280;57052;55.602;38.096;2023-09-19T04:33:05;100843.00;;;12.37;72.30
69780;BME280;57052;55.602;38.096;2023-09-19T04:35:32;100833.22;;;12.41;72.24
69780;BME280;57052;55.602;38.096;2023-09-19T04:37:57;100828.59;;;12.36;72.18
69780;BME280;57052;55.602;38.096;2023-09-19T04:40:23;100832.69;;;12.44;71.91
69780;BME280;57052;55.602;38.096;2023-09-19T04:42:58;100846.28;;;12.49;72.62
69780;BME280;57052;55.602;38.096;2023-09-19T04:45:27;100839.81;;;12.55;72.32
69780;BME280;57052;55.602;38.096;2023-09-19T04:47:54;100836.81;;;12.61;72.07
69780;BME280;57052;55.602;38.096;2023-09-19T04:50:20;100838.47;;;12.67;72.29
69780;BME280;57052;55.602;38.096;2023-09-19T04:52:49;100847.72;;;12.71;72.21
69780;BME280;57052;55.602;38.096;2023-09-19T04:55:17;100841.22;;;12.77;71.49
69780;BME280;57052;55.602;38.096;2023-09-19T04:57:50;100839.03;;;12.79;72.30
69780;BME280;57052;55.602;38.096;2023-09-19T05:00:18;100840.66;;;12.85;72.22
69780;BME280;57052;55.602;38.096;2023-09-19T05:02:56;100841.25;;;12.88;71.71
69780;BME280;57052;55.602;38.096;2023-09-19T05:05:23;100831.44;;;12.81;71.85
69780;BME280;57052;55.602;38.096;2023-09-19T05:07:51;100839.59;;;12.92;71.56
69780;BME280;57052;55.602;38.096;2023-09-19T05:10:19;100835.25;;;12.96;71.78
69780;BME280;57052;55.602;38.096;2023-09-19T05:12:46;100834.72;;;12.99;71.70
69780;BME280;57052;55.602;38.096;2023-09-19T05:15:14;100823.84;;;12.99;72.02
69780;BME280;57052;55.602;38.096;2023-09-19T05:17:48;100788.78;;;12.77;71.83
69780;BME280;57052;55.602;38.096;2023-09-19T05:20:15;100829.81;;;13.01;71.88
69780;BME280;57052;55.602;38.096;2023-09-19T05:23:02;100799.13;;;12.90;71.35
69780;BME280;57052;55.602;38.096;2023-09-19T05:25:35;100821.66;;;13.01;71.70
69780;BME280;57052;55.602;38.096;2023-09-19T05:28:11;100778.97;;;12.71;71.68
69780;BME280;57052;55.602;38.096;2023-09-19T05:30:40;100841.00;;;13.09;71.69
69780;BME280;57052;55.602;38.096;2023-09-19T05:33:08;100833.69;;;13.10;71.44
69780;BME280;57052;55.602;38.096;2023-09-19T05:35:35;100832.56;;;13.11;71.90
69780;BME280;57052;55.602;38.096;2023-09-19T05:38:05;100839.38;;;13.13;71.62
69780;BME280;57052;55.602;38.096;2023-09-19T05:40:34;100834.47;;;13.15;71.82
69780;BME280;57052;55.602;38.096;2023-09-19T05:43:01;100827.97;;;13.11;71.91
69780;BME280;57052;55.602;38.096;2023-09-19T05:45:27;100832.84;;;13.19;71.76
69780;BME280;57052;55.602;38.096;2023-09-19T05:47:53;100826.59;;;13.24;71.75
69780;BME280;57052;55.602;38.096;2023-09-19T05:50:29;100821.69;;;13.26;71.38
69780;BME280;57052;55.602;38.096;2023-09-19T05:52:55;100819.25;;;13.29;71.47
69780;BME280;57052;55.602;38.096;2023-09-19T05:55:23;100816.78;;;13.33;71.75
69780;BME280;57052;55.602;38.096;2023-09-19T05:57:51;100802.13;;;13.34;71.58
69780;BME280;57052;55.602;38.096;2023-09-19T06:00:21;100817.06;;;13.41;71.77
69780;BME280;57052;55.602;38.096;2023-09-19T06:02:52;100804.28;;;13.47;71.68
69780;BME280;57052;55.602;38.096;2023-09-19T06:05:18;100811.06;;;13.55;71.46
69780;BME280;57052;55.602;38.096;2023-09-19T06:07:44;100806.47;;;13.55;71.42
69780;BME280;57052;55.602;38.096;2023-09-19T06:10:10;100820.28;;;13.64;70.95
69780;BME280;57052;55.602;38.096;2023-09-19T06:12:39;100815.66;;;13.69;70.86
69780;BME280;57052;55.602;38.096;2023-09-19T06:15:05;100809.13;;;13.75;70.94
69780;BME280;57052;55.602;38.096;2023-09-19T06:17:31;100809.09;;;13.80;70.98
69780;BME280;57052;55.602;38.096;2023-09-19T06:19:57;100811.53;;;13.87;70.87
69780;BME280;57052;55.602;38.096;2023-09-19T06:22:23;100812.06;;;13.94;70.84
69780;BME280;57052;55.602;38.096;2023-09-19T06:24:50;100812.31;;;13.97;70.82
69780;BME280;57052;55.602;38.096;2023-09-19T06:27:15;100805.75;;;14.03;70.69
69780;BME280;57052;55.602;38.096;2023-09-19T06:29:41;100808.44;;;14.08;70.62
69780;BME280;57052;55.602;38.096;2023-09-19T06:32:08;100799.47;;;14.08;70.36
69780;BME280;57052;55.602;38.096;2023-09-19T06:34:37;100743.53;;;13.82;70.00
69780;BME280;57052;55.602;38.096;2023-09-19T06:37:08;100799.13;;;14.25;70.55
69780;BME280;57052;55.602;38.096;2023-09-19T06:39:34;100793.66;;;14.30;70.34
69780;BME280;57052;55.602;38.096;2023-09-19T06:42:00;100757.56;;;14.09;70.22
69780;BME280;57052;55.602;38.096;2023-09-19T06:44:27;100800.47;;;14.37;70.19
69780;BME280;57052;55.602;38.096;2023-09-19T06:46:55;100794.16;;;14.42;70.26
69780;BME280;57052;55.602;38.096;2023-09-19T06:49:20;100795.25;;;14.41;70.33
69780;BME280;57052;55.602;38.096;2023-09-19T06:51:46;100796.59;;;14.43;70.08
69780;BME280;57052;55.602;38.096;2023-09-19T06:54:12;100802.84;;;14.49;70.31
69780;BME280;57052;55.602;38.096;2023-09-19T06:56:38;100795.19;;;14.51;70.12
69780;BME280;57052;55.602;38.096;2023-09-19T06:59:04;100796.53;;;14.53;70.30
69780;BME280;57052;55.602;38.096;2023-09-19T07:01:32;100796.25;;;14.60;70.21
69780;BME280;57052;55.602;38.096;2023-09-19T07:03:59;100786.97;;;14.61;70.17
69780;BME280;57052;55.602;38.096;2023-09-19T07:06:24;100797.28;;;14.69;70.15
69780;BME280;57052;55.602;38.096;2023-09-19T07:08:50;100790.16;;;14.73;70.30
69780;BME280;57052;55.602;38.096;2023-09-19T07:11:16;100789.28;;;14.83;70.14
69780;BME280;57052;55.602;38.096;2023-09-19T07:13:42;100800.91;;;14.93;70.22
69780;BME280;57052;55.602;38.096;2023-09-19T07:16:07;100794.63;;;14.98;70.20
69780;BME280;57052;55.602;38.096;2023-09-19T07:18:35;100796.72;;;15.06;69.63
69780;BME280;57052;55.602;38.096;2023-09-19T07:21:02;100795.28;;;15.13;69.90
69780;BME280;57052;55.602;38.096;2023-09-19T07:23:30;100790.09;;;15.17;70.25
69780;BME280;57052;55.602;38.096;2023-09-19T07:26:01;100799.56;;;15.24;69.83
69780;BME280;57052;55.602;38.096;2023-09-19T07:28:29;100786.19;;;15.28;69.68
69780;BME280;57052;55.602;38.096;2023-09-19T07:30:55;100786.59;;;15.40;69.56
69780;BME280;57052;55.602;38.096;2023-09-19T07:33:20;100780.28;;;15.45;69.43
69780;BME280;57052;55.602;38.096;2023-09-19T07:35:47;100768.41;;;15.59;69.47
69780;BME280;57052;55.602;38.096;2023-09-19T07:38:13;100778.41;;;15.69;69.48
69780;BME280;57052;55.602;38.096;2023-09-19T07:40:39;100784.28;;;15.81;69.38
69780;BME280;57052;55.602;38.096;2023-09-19T07:43:05;100757.09;;;15.71;69.21
69780;BME280;57052;55.602;38.096;2023-09-19T07:45:32;100786.25;;;15.99;69.00
69780;BME280;57052;55.602;38.096;2023-09-19T07:47:58;100773.34;;;16.04;68.82
69780;BME280;57052;55.602;38.096;2023-09-19T07:50:25;100784.16;;;16.15;68.60
69780;BME280;57052;55.602;38.096;2023-09-19T07:52:52;100780.41;;;16.29;68.21
69780;BME280;57052;55.602;38.096;2023-09-19T07:55:21;100767.63;;;16.25;68.15
69780;BME280;57052;55.602;38.096;2023-09-19T07:57:50;100772.00;;;16.44;68.22
69780;BME280;57052;55.602;38.096;2023-09-19T08:00:15;100753.16;;;16.43;68.27
69780;BME280;57052;55.602;38.096;2023-09-19T08:02:42;100766.66;;;16.58;68.09
69780;BME280;57052;55.602;38.096;2023-09-19T08:05:10;100758.88;;;16.65;67.95
69780;BME280;57052;55.602;38.096;2023-09-19T08:07:37;100755.16;;;16.75;67.73
69780;BME280;57052;55.602;38.096;2023-09-19T08:10:04;100765.44;;;16.83;67.78
69780;BME280;57052;55.602;38.096;2023-09-19T08:12:34;100754.94;;;16.90;67.43
69780;BME280;57052;55.602;38.096;2023-09-19T08:15:02;100751.09;;;16.91;67.20
69780;BME280;57052;55.602;38.096;2023-09-19T08:17:34;100749.19;;;17.05;67.29
69780;BME280;57052;55.602;38.096;2023-09-19T08:20:00;100752.56;;;17.15;67.36
69780;BME280;57052;55.602;38.096;2023-09-19T08:22:26;100753.81;;;17.23;67.12
69780;BME280;57052;55.602;38.096;2023-09-19T08:24:52;100734.13;;;17.21;67.18
69780;BME280;57052;55.602;38.096;2023-09-19T08:27:18;100743.19;;;17.35;67.16
69780;BME280;57052;55.602;38.096;2023-09-19T08:29:44;100741.97;;;17.41;66.88
69780;BME280;57052;55.602;38.096;2023-09-19T08:32:11;100747.00;;;17.53;66.58
69780;BME280;57052;55.602;38.096;2023-09-19T08:34:37;100743.03;;;17.59;66.39
69780;BME280;57052;55.602;38.096;2023-09-19T08:37:03;100731.69;;;17.65;66.13
69780;BME280;57052;55.602;38.096;2023-09-19T08:39:30;100723.38;;;17.70;66.17
69780;BME280;57052;55.602;38.096;2023-09-19T08:42:00;100716.47;;;17.73;65.87
69780;BME280;57052;55.602;38.096;2023-09-19T08:44:27;100700.75;;;17.78;65.77
69780;BME280;57052;55.602;38.096;2023-09-19T08:47:04;100686.25;;;17.78;65.53
69780;BME280;57052;55.602;38.096;2023-09-19T08:52:25;100706.09;;;17.97;65.46
69780;BME280;57052;55.602;38.096;2023-09-19T08:54:58;100711.78;;;18.01;65.11
69780;BME280;57052;55.602;38.096;2023-09-19T08:57:29;100711.34;;;18.07;65.29
69780;BME280;57052;55.602;38.096;2023-09-19T08:59:59;100710.31;;;18.17;65.17
69780;BME280;57052;55.602;38.096;2023-09-19T09:02:26;100691.03;;;18.22;65.16
69780;BME280;57052;55.602;38.096;2023-09-19T09:04:53;100685.13;;;18.28;65.04
69780;BME280;57052;55.602;38.096;2023-09-19T09:07:21;100695.34;;;18.50;64.96
69780;BME280;57052;55.602;38.096;2023-09-19T09:09:47;100697.22;;;18.63;64.71
69780;BME280;57052;55.602;38.096;2023-09-19T09:12:14;100690.16;;;18.71;64.46
69780;BME280;57052;55.602;38.096;2023-09-19T09:14:45;100701.06;;;18.84;63.84
69780;BME280;57052;55.602;38.096;2023-09-19T09:17:16;100699.19;;;18.93;64.01
69780;BME280;57052;55.602;38.096;2023-09-19T09:19:46;100695.88;;;19.05;63.85
69780;BME280;57052;55.602;38.096;2023-09-19T09:22:12;100708.34;;;19.11;63.60
69780;BME280;57052;55.602;38.096;2023-09-19T09:24:58;100697.53;;;19.14;62.97
69780;BME280;57052;55.602;38.096;2023-09-19T09:27:27;100698.06;;;19.25;63.13
69780;BME280;57052;55.602;38.096;2023-09-19T09:29:53;100691.75;;;19.25;63.01
69780;BME280;57052;55.602;38.096;2023-09-19T09:34:52;100698.81;;;19.39;62.67
69780;BME280;57052;55.602;38.096;2023-09-19T09:37:19;100701.75;;;19.43;62.79
69780;BME280;57052;55.602;38.096;2023-09-19T09:40:02;100689.44;;;19.40;61.91
69780;BME280;57052;55.602;38.096;2023-09-19T09:42:40;100671.16;;;19.36;62.42
69780;BME280;57052;55.602;38.096;2023-09-19T09:45:19;100685.59;;;19.41;61.92
69780;BME280;57052;55.602;38.096;2023-09-19T09:47:54;100678.66;;;19.44;62.38
69780;BME280;57052;55.602;38.096;2023-09-19T09:50:27;100677.84;;;19.43;62.16
69780;BME280;57052;55.602;38.096;2023-09-19T09:53:21;100681.41;;;19.44;62.07
69780;BME280;57052;55.602;38.096;2023-09-19T09:58:22;100674.13;;;19.48;61.91
69780;BME280;57052;55.602;38.096;2023-09-19T10:00:58;100666.03;;;19.43;61.63
69780;BME280;57052;55.602;38.096;2023-09-19T10:03:39;100667.38;;;19.54;61.50
69780;BME280;57052;55.602;38.096;2023-09-19T10:06:11;100647.66;;;19.52;61.24
69780;BME280;57052;55.602;38.096;2023-09-19T10:09:02;100663.81;;;19.62;61.37
69780;BME280;57052;55.602;38.096;2023-09-19T10:11:45;100665.94;;;19.65;61.31
69780;BME280;57052;55.602;38.096;2023-09-19T10:14:14;100660.63;;;19.68;61.54
69780;BME280;57052;55.602;38.096;2023-09-19T10:16:45;100630.19;;;19.48;61.08
69780;BME280;57052;55.602;38.096;2023-09-19T10:19:16;100670.66;;;19.73;61.00
69780;BME280;57052;55.602;38.096;2023-09-19T10:21:48;100663.38;;;19.77;61.27
69780;BME280;57052;55.602;38.096;2023-09-19T10:24:15;100650.66;;;19.81;61.11
69780;BME280;57052;55.602;38.096;2023-09-19T10:26:43;100638.34;;;19.78;61.03
69780;BME280;57052;55.602;38.096;2023-09-19T10:29:13;100625.41;;;19.79;60.99
69780;BME280;57052;55.602;38.096;2023-09-19T10:31:42;100638.53;;;19.91;60.98
69780;BME280;57052;55.602;38.096;2023-09-19T10:34:14;100635.28;;;19.97;60.95
69780;BME280;57052;55.602;38.096;2023-09-19T10:36:44;100632.38;;;20.02;60.70
69780;BME280;57052;55.602;38.096;2023-09-19T10:39:11;100615.41;;;20.00;61.01
69780;BME280;57052;55.602;38.096;2023-09-19T10:41:39;100623.19;;;20.15;60.86
69780;BME280;57052;55.602;38.096;2023-09-19T10:44:05;100626.25;;;20.22;60.79
69780;BME280;57052;55.602;38.096;2023-09-19T10:46:32;100625.31;;;20.27;60.67
69780;BME280;57052;55.602;38.096;2023-09-19T10:49:02;100612.50;;;20.22;60.63
69780;BME280;57052;55.602;38.096;2023-09-19T10:51:38;100616.41;;;20.30;60.30
69780;BME280;57052;55.602;38.096;2023-09-19T10:54:08;100618.00;;;20.39;60.57
69780;BME280;57052;55.602;38.096;2023-09-19T10:56:42;100619.00;;;20.43;60.12
69780;BME280;57052;55.602;38.096;2023-09-19T10:59:12;100616.38;;;20.47;60.40
69780;BME280;57052;55.602;38.096;2023-09-19T11:01:43;100617.69;;;20.50;60.10
69780;BME280;57052;55.602;38.096;2023-09-19T11:04:35;100610.41;;;20.54;60.01
69780;BME280;57052;55.602;38.096;2023-09-19T11:07:05;100602.00;;;20.59;60.11
69780;BME280;57052;55.602;38.096;2023-09-19T11:09:52;100614.75;;;20.63;60.03
69780;BME280;57052;55.602;38.096;2023-09-19T11:14:54;100599.66;;;20.78;60.31
69780;BME280;57052;55.602;38.096;2023-09-19T11:30:45;100582.63;;;21.31;58.67
69780;BME280;57052;55.602;38.096;2023-09-19T11:36:10;100585.16;;;21.44;57.53
69780;BME280;57052;55.602;38.096;2023-09-19T11:47:05;100587.09;;;21.44;56.92
69780;BME280;57052;55.602;38.096;2023-09-19T11:49:32;100576.22;;;21.47;58.09
69780;BME280;57052;55.602;38.096;2023-09-19T11:52:00;100567.19;;;21.38;58.00
69780;BME280;57052;55.602;38.096;2023-09-19T11:54:27;100583.06;;;21.41;58.21
69780;BME280;57052;55.602;38.096;2023-09-19T11:56:58;100585.63;;;21.46;58.48
69780;BME280;57052;55.602;38.096;2023-09-19T11:59:30;100582.41;;;21.44;58.25
69780;BME280;57052;55.602;38.096;2023-09-19T12:02:07;100571.56;;;21.39;57.68
69780;BME280;57052;55.602;38.096;2023-09-19T12:04:34;100585.91;;;21.53;58.32
69780;BME280;57052;55.602;38.096;2023-09-19T12:07:13;100577.63;;;21.53;58.07
69780;BME280;57052;55.602;38.096;2023-09-19T12:09:44;100576.47;;;21.54;57.83
69780;BME280;57052;55.602;38.096;2023-09-19T12:12:23;100574.53;;;21.55;57.33
69780;BME280;57052;55.602;38.096;2023-09-19T12:14:54;100573.22;;;21.61;58.13
69780;BME280;57052;55.602;38.096;2023-09-19T12:17:20;100566.22;;;21.63;58.24
69780;BME280;57052;55.602;38.096;2023-09-19T12:19:56;100554.25;;;21.59;57.79
69780;BME280;57052;55.602;38.096;2023-09-19T12:22:22;100562.13;;;21.69;57.71
69780;BME280;57052;55.602;38.096;2023-09-19T12:24:48;100547.41;;;21.65;58.41
69780;BME280;57052;55.602;38.096;2023-09-19T12:27:16;100558.03;;;21.76;57.99
69780;BME280;57052;55.602;38.096;2023-09-19T12:29:46;100550.56;;;21.76;58.40
69780;BME280;57052;55.602;38.096;2023-09-19T12:32:14;100537.31;;;21.69;58.12
69780;BME280;57052;55.602;38.096;2023-09-19T12:34:42;100542.78;;;21.78;57.97
69780;BME280;57052;55.602;38.096;2023-09-19T12:37:16;100535.63;;;21.77;58.31
69780;BME280;57052;55.602;38.096;2023-09-19T12:39:49;100537.59;;;21.77;58.06
69780;BME280;57052;55.602;38.096;2023-09-19T12:42:24;100532.75;;;21.73;57.98
69780;BME280;57052;55.602;38.096;2023-09-19T12:44:53;100537.00;;;21.71;58.05
69780;BME280;57052;55.602;38.096;2023-09-19T12:47:24;100529.41;;;21.68;58.26
69780;BME280;57052;55.602;38.096;2023-09-19T12:50:12;100532.09;;;21.56;58.27
69780;BME280;57052;55.602;38.096;2023-09-19T12:52:45;100513.81;;;21.51;58.50
69780;BME280;57052;55.602;38.096;2023-09-19T12:55:31;100520.44;;;21.50;58.43
69780;BME280;57052;55.602;38.096;2023-09-19T12:58:14;100510.25;;;21.51;58.55
69780;BME280;57052;55.602;38.096;2023-09-19T13:00:45;100518.56;;;21.42;59.19
69780;BME280;57052;55.602;38.096;2023-09-19T13:05:58;100509.69;;;21.57;58.89
69780;BME280;57052;55.602;38.096;2023-09-19T13:08:36;100506.63;;;21.59;59.13
69780;BME280;57052;55.602;38.096;2023-09-19T13:11:10;100506.06;;;21.65;59.07
69780;BME280;57052;55.602;38.096;2023-09-19T13:13:45;100489.28;;;21.58;59.28
69780;BME280;57052;55.602;38.096;2023-09-19T13:16:13;100498.72;;;21.69;58.71
69780;BME280;57052;55.602;38.096;2023-09-19T13:18:44;100507.16;;;21.73;58.64
69780;BME280;57052;55.602;38.096;2023-09-19T13:21:12;100500.81;;;21.72;59.08
69780;BME280;57052;55.602;38.096;2023-09-19T13:23:51;100498.53;;;21.74;58.54
69780;BME280;57052;55.602;38.096;2023-09-19T13:26:18;100495.47;;;21.76;58.72
69780;BME280;57052;55.602;38.096;2023-09-19T13:28:44;100484.28;;;21.72;58.91
69780;BME280;57052;55.602;38.096;2023-09-19T13:31:10;100492.03;;;21.79;58.54
69780;BME280;57052;55.602;38.096;2023-09-19T13:33:43;100493.50;;;21.77;58.95
69780;BME280;57052;55.602;38.096;2023-09-19T13:36:11;100485.09;;;21.73;58.73
69780;BME280;57052;55.602;38.096;2023-09-19T13:38:37;100481.69;;;21.76;58.95
69780;BME280;57052;55.602;38.096;2023-09-19T13:41:03;100481.53;;;21.72;58.92